• Join FlightAware (Why Join?)
  • Login
  • US Flag 
08:18AM EST


 

Airport Tracker/Info


-or-


 

Live Flight TrackerFlight Track Log ✈ SWA3937 ✈ 17-Apr-2013 ✈ KONT - KPHX

Flight Track Log - Related Links

Times and Time Zones

All times are in EDT time to prevent confusion due to time zone crossing. See the SWA3937 flight status page for this flight to view local times or setup timezone preferences in your user account.

Time Position Orientation Groundspeed Altitude Reporting Facility
EDT Latitude Longitude Course Direction KTS MPH feet Rate Location/Type
12:42PM 33.9667 -117.5667 148° Southeast 224 258 5,300  Level Southern California TRACON
12:43PM 33.9000 -117.5167 148° Southeast 286 329 6,900 1,020 Climbing Southern California TRACON
12:44PM 33.8656 -117.4856 143° Southeast 275 316 7,000 180 Climbing Los Angeles Center
12:45PM 33.8003 -117.4292 144° Southeast 285 328 7,300 1,800 Climbing Los Angeles Center
12:46PM 33.7317 -117.3736 146° Southeast 292 336 10,800 3,240 Climbing Los Angeles Center
12:47PM 33.6542 -117.3097 146° Southeast 323 372 14,000 2,820 Climbing Los Angeles Center
12:48PM 33.5994 -117.2103 123° Southeast 363 418 16,700 2,640 Climbing Los Angeles Center
12:49PM 33.5558 -117.0558 109° East 398 458 19,500 2,460 Climbing Los Angeles Center
12:50PM 33.5653 -116.9125 85° East 421 484 21,900 2,520 Climbing Los Angeles Center
12:51PM 33.5783 -116.7653 84° East 437 503 24,800 2,520 Climbing Los Angeles Center
12:52PM 33.5903 -116.6197 84° East 439 505 27,200 1,980 Climbing Los Angeles Center
12:53PM 33.6025 -116.4686 84° East 452 520 29,000 1,560 Climbing Los Angeles Center
12:54PM 33.6150 -116.3083 85° East 475 547 30,500 1,200 Climbing Los Angeles Center
12:55PM 33.6261 -116.1394 85° East 506 582 31,600 900 Climbing Los Angeles Center
12:56PM 33.6228 -115.9236 91° East 538 619 32,400 660 Climbing Los Angeles Center
12:57PM 33.6181 -115.7325 92° East 572 658 33,000 240 Climbing Los Angeles Center
12:58PM 33.6125 -115.5372 92° East 583 671 32,900  Descending Los Angeles Center
12:59PM 33.6086 -115.3450 91° East 579 666 33,000  Climbing Los Angeles Center
01:00PM 33.6042 -115.1531 92° East 576 663 33,000 -60 Level Los Angeles Center
01:01PM 33.5994 -114.9606 92° East 577 664 32,900  Descending Los Angeles Center
01:02PM 33.5883 -114.7283 93° East 581 669 33,000 -960 Climbing Los Angeles Center
01:03PM 33.5511 -114.5397 103° East 578 665 31,000 -2,100 Descending Los Angeles Center
01:04PM 33.5444 -114.4797 98° East 582 670 30,200 -2,400 Descending Albuquerque Center
01:05PM 33.5072 -114.2989 104° East 567 652 27,800 -2,340 Descending Albuquerque Center
01:06PM 33.4722 -114.1242 103° East 547 629 25,400 -1,440 Descending Albuquerque Center
01:07PM 33.4389 -113.9608 104° East 517 595 24,900 -240 Descending Albuquerque Center
01:08PM 33.4067 -113.7994 103° East 503 579 25,000 -480 Climbing Albuquerque Center
01:09PM 33.3683 -113.6069 103° East 497 572 24,000 -1,500 Descending Albuquerque Center
01:10PM 33.3358 -113.4506 104° East 488 562 21,900 -2,040 Descending Albuquerque Center
01:11PM 33.3044 -113.2981 104° East 478 550 19,800 -2,040 Descending Albuquerque Center
01:12PM 33.2747 -113.1508 104° East 463 533 17,800 -1,380 Descending Albuquerque Center
01:13PM 33.2753 -113.0064 90° East 438 504 17,000 -780 Descending Albuquerque Center
01:14PM 33.2794 -112.8736 88° East 412 474 16,300 -540 Descending Albuquerque Center
01:15PM 33.2817 -112.7303 89° East 372 428 15,900 -960 Descending Albuquerque Center
01:16PM 33.2831 -112.6128 89° East 358 412 14,400 -1,500 Descending Albuquerque Center
01:17PM 33.2886 -112.4989 87° East 338 389 12,800 -1,500 Descending Albuquerque Center
01:18PM 33.2917 -112.3922 88° East 324 373 11,400 -1,080 Descending Albuquerque Center
01:19PM 33.2964 -112.2911 87° East 308 354 10,600 -900 Descending Albuquerque Center
01:20PM 33.3033 -112.1969 85° East 288 331 9,600 -780 Descending Albuquerque Center
01:21PM 33.3103 -112.1047 85° East 281 323 9,000 -960 Descending Albuquerque Center
01:22PM 33.3336 -112.0067 74° East 256 295 7,700 -1,020 Descending Albuquerque Center
01:23PM 33.3461 -111.9233 80° East 261 300 7,000 -900 Descending Albuquerque Center
01:24PM 33.3450 -111.8425 91° East 246 283 5,900 -1,320 Descending Albuquerque Center
01:25PM 33.3731 -111.7825 61° Northeast 238 274 4,300 -1,200 Descending Albuquerque Center
01:26PM 33.4025 -111.8269 308° West 183 211 3,500 -660 Descending Albuquerque Center
01:27PM 33.4203 -111.8767 293° West 165 190 3,000 -600 Descending Albuquerque Center
01:28PM 33.4283 -111.9319 280° West 147 169 2,300 -720 Descending Albuquerque Center
01:29PM 33.4294 -111.9753 272° West 134 154 1,600 -600 Descending Albuquerque Center
01:30PM 33.4281 -112.0169 268° West 136 157 1,100 -540 Descending Albuquerque Center